createdAt,value
2023-04-18T00:00:05.336Z,10.00
2023-04-18T00:02:36.515Z,8.87
2023-04-18T00:05:07.767Z,8.60
2023-04-18T00:07:36.423Z,10.17
2023-04-18T00:10:05.365Z,7.10
2023-04-18T00:12:34.484Z,6.40
2023-04-18T00:15:03.156Z,7.87
2023-04-18T00:17:32.046Z,6.17
2023-04-18T00:20:02.453Z,6.37
2023-04-18T00:22:32.314Z,8.00
2023-04-18T00:25:01.462Z,8.50
2023-04-18T00:27:29.780Z,7.10
2023-04-18T00:29:58.235Z,8.13
2023-04-18T00:32:26.555Z,8.00
2023-04-18T00:34:54.901Z,6.87
2023-04-18T00:37:23.202Z,4.77
2023-04-18T00:39:54.199Z,6.07
2023-04-18T00:42:22.916Z,6.67
2023-04-18T00:44:51.143Z,5.77
2023-04-18T00:47:19.393Z,9.37
2023-04-18T00:49:48.432Z,5.73
2023-04-18T00:52:17.849Z,7.40
2023-04-18T00:54:46.644Z,8.07
2023-04-18T00:57:17.043Z,9.07
2023-04-18T00:59:46.327Z,7.10
2023-04-18T01:02:14.831Z,12.17
2023-04-18T01:04:44.588Z,6.70
2023-04-18T01:07:13.494Z,7.40
2023-04-18T01:09:42.126Z,6.10
2023-04-18T01:12:11.307Z,5.50
2023-04-18T01:14:44.271Z,6.20
2023-04-18T01:17:16.624Z,9.10
2023-04-18T01:19:46.945Z,8.73
2023-04-18T01:22:16.014Z,8.17
2023-04-18T01:24:46.064Z,6.73
2023-04-18T01:27:14.876Z,4.67
2023-04-18T01:29:42.968Z,7.90
2023-04-18T01:32:11.301Z,7.40
2023-04-18T01:34:39.659Z,8.77
2023-04-18T01:37:08.104Z,8.23
2023-04-18T01:39:36.474Z,5.17
2023-04-18T01:42:06.021Z,8.73
2023-04-18T01:44:34.116Z,5.77
2023-04-18T01:47:02.529Z,4.23
2023-04-18T01:49:30.859Z,9.30
2023-04-18T01:51:59.037Z,8.50
2023-04-18T01:54:27.379Z,7.20
2023-04-18T01:56:55.595Z,6.47
2023-04-18T01:59:25.123Z,7.47
2023-04-18T02:01:53.626Z,6.73
2023-04-18T02:04:22.074Z,5.10
2023-04-18T02:06:50.276Z,5.57
2023-04-18T02:09:18.702Z,8.53
2023-04-18T02:11:46.884Z,8.63
2023-04-18T02:14:15.214Z,8.07
2023-04-18T02:16:45.163Z,4.23
2023-04-18T02:19:13.269Z,6.10
2023-04-18T02:21:41.996Z,6.27
2023-04-18T02:24:10.349Z,9.43
2023-04-18T02:26:38.528Z,10.13
2023-04-18T02:29:06.693Z,11.03
2023-04-18T02:31:34.901Z,5.90
2023-04-18T02:34:04.705Z,6.60
2023-04-18T02:36:33.344Z,6.20
2023-04-18T02:39:01.987Z,7.10
2023-04-18T02:41:30.144Z,4.50
2023-04-18T02:43:58.373Z,6.10
2023-04-18T02:46:26.794Z,5.23
2023-04-18T02:48:54.912Z,5.10
2023-04-18T02:51:24.453Z,8.40
2023-04-18T02:53:55.275Z,6.67
2023-04-18T02:56:24.461Z,5.33
2023-04-18T02:58:52.743Z,7.47
2023-04-18T03:01:21.235Z,5.27
2023-04-18T03:03:49.418Z,6.93
2023-04-18T03:06:17.631Z,11.53
2023-04-18T03:08:47.386Z,8.53
2023-04-18T03:11:15.558Z,11.23
2023-04-18T03:13:44.375Z,7.67
2023-04-18T03:16:12.993Z,10.07
2023-04-18T03:18:41.171Z,8.20
2023-04-18T03:21:09.247Z,6.80
2023-04-18T03:23:37.546Z,5.50
2023-04-18T03:26:08.448Z,6.00
2023-04-18T03:28:36.636Z,9.13
2023-04-18T03:31:05.141Z,7.77
2023-04-18T03:33:33.295Z,6.97
2023-04-18T03:36:01.570Z,5.47
2023-04-18T03:38:29.890Z,7.13
2023-04-18T03:40:58.335Z,8.33
2023-04-18T03:43:28.049Z,7.73
2023-04-18T03:45:57.432Z,7.40
2023-04-18T03:48:25.841Z,8.60
2023-04-18T03:50:53.976Z,8.67
2023-04-18T03:53:22.330Z,6.77
2023-04-18T03:55:50.862Z,8.80
2023-04-18T03:58:23.739Z,5.77
2023-04-18T04:00:53.428Z,4.53
2023-04-18T04:03:21.600Z,4.87
2023-04-18T04:05:49.993Z,7.47
2023-04-18T04:08:18.550Z,9.37
2023-04-18T04:10:46.676Z,5.30
2023-04-18T04:13:14.969Z,7.90
2023-04-18T04:15:43.300Z,6.87
2023-04-18T04:18:12.928Z,12.17
2023-04-18T04:20:41.286Z,8.87
2023-04-18T04:23:10.161Z,12.33
2023-04-18T04:25:38.798Z,7.27
2023-04-18T04:28:08.341Z,16.27
2023-04-18T04:30:37.583Z,6.87
2023-04-18T04:33:06.657Z,9.23
2023-04-18T04:35:36.912Z,11.97
2023-04-18T04:38:05.976Z,13.63
2023-04-18T04:40:34.283Z,17.13
2023-04-18T04:43:02.576Z,14.13
2023-04-18T04:45:31.266Z,18.20
2023-04-18T04:47:59.663Z,11.97
2023-04-18T04:50:28.306Z,19.13
2023-04-18T04:52:58.728Z,12.40
2023-04-18T04:55:26.870Z,13.27
2023-04-18T04:57:55.949Z,16.53
2023-04-18T05:00:24.636Z,10.90
2023-04-18T05:02:54.685Z,9.40
2023-04-18T05:05:23.076Z,9.93
2023-04-18T05:07:51.767Z,15.63
2023-04-18T05:10:21.837Z,8.97
2023-04-18T05:12:50.059Z,8.97
2023-04-18T05:15:19.402Z,10.40
2023-04-18T05:17:47.613Z,11.40
2023-04-18T05:20:16.181Z,26.90
2023-04-18T05:22:44.387Z,16.50
2023-04-18T05:25:13.032Z,10.87
2023-04-18T05:27:42.942Z,19.50
2023-04-18T05:30:11.967Z,17.80
2023-04-18T05:32:40.188Z,9.27
2023-04-18T05:35:09.242Z,11.83
2023-04-18T05:37:37.556Z,16.47
2023-04-18T05:40:06.734Z,23.03
2023-04-18T05:42:34.985Z,17.77
2023-04-18T05:45:05.154Z,18.17
2023-04-18T05:47:33.801Z,14.37
2023-04-18T05:50:02.167Z,21.37
2023-04-18T05:52:30.336Z,13.10
2023-04-18T05:54:58.503Z,15.07
2023-04-18T05:57:26.877Z,21.07
2023-04-18T05:59:55.865Z,18.07
2023-04-18T06:02:25.791Z,13.80
2023-04-18T06:04:54.356Z,13.73
2023-04-18T06:07:25.189Z,18.63
2023-04-18T06:09:54.243Z,17.47
2023-04-18T06:12:22.651Z,20.57
2023-04-18T06:14:51.322Z,21.30
2023-04-18T06:17:19.504Z,20.33
2023-04-18T06:19:49.352Z,21.57
2023-04-18T06:22:17.614Z,13.83
2023-04-18T06:24:46.067Z,11.83
2023-04-18T06:27:24.412Z,13.83
2023-04-18T06:29:58.745Z,15.73
2023-04-18T06:32:27.198Z,13.93
2023-04-18T06:34:57.090Z,16.97
2023-04-18T06:37:25.655Z,14.57
2023-04-18T06:39:53.932Z,18.57
2023-04-18T06:42:22.660Z,18.10
2023-04-18T06:44:51.230Z,22.90
2023-04-18T06:47:19.517Z,21.57
2023-04-18T06:49:48.321Z,19.90
2023-04-18T06:52:18.249Z,17.40
2023-04-18T06:54:46.432Z,22.53
2023-04-18T06:57:14.602Z,18.33
2023-04-18T06:59:42.794Z,22.47
2023-04-18T07:02:10.956Z,21.10
2023-04-18T07:04:39.367Z,21.53
2023-04-18T07:07:07.817Z,17.27
2023-04-18T07:09:37.523Z,14.23
2023-04-18T07:12:05.823Z,19.27
2023-04-18T07:14:34.386Z,17.10
2023-04-18T07:17:03.006Z,16.70
2023-04-18T07:19:31.250Z,11.20
2023-04-18T07:21:59.487Z,15.80
2023-04-18T07:24:27.954Z,14.33
2023-04-18T07:26:58.157Z,10.37
2023-04-18T07:29:26.580Z,10.97
2023-04-18T07:31:54.688Z,9.67
2023-04-18T07:34:23.267Z,11.90
2023-04-18T07:36:51.389Z,9.67
2023-04-18T07:39:19.844Z,10.33
2023-04-18T07:41:48.109Z,5.13
2023-04-18T07:44:18.338Z,8.17
2023-04-18T07:46:47.279Z,4.00
2023-04-18T07:49:15.944Z,4.47
2023-04-18T07:51:44.286Z,2.50
2023-04-18T07:54:12.421Z,2.90
2023-04-18T07:56:41.062Z,11.80
2023-04-18T07:59:09.085Z,7.67
2023-04-18T08:01:38.664Z,14.57
2023-04-18T08:04:07.441Z,4.63
2023-04-18T08:06:35.836Z,5.37
2023-04-18T08:09:05.997Z,3.10
2023-04-18T08:11:35.049Z,3.47
2023-04-18T08:14:03.414Z,2.77
2023-04-18T08:16:32.001Z,4.10
2023-04-18T08:19:01.729Z,2.50
2023-04-18T08:21:29.869Z,5.23
2023-04-18T08:23:58.292Z,4.00
2023-04-18T08:26:27.228Z,2.13
2023-04-18T08:28:55.434Z,1.20
2023-04-18T08:31:23.612Z,3.37
2023-04-18T08:33:52.020Z,6.70
2023-04-18T08:36:21.931Z,3.43
2023-04-18T08:38:50.337Z,3.60
2023-04-18T08:41:22.210Z,3.63
2023-04-18T08:43:50.285Z,3.10
2023-04-18T08:46:19.248Z,4.00
2023-04-18T08:48:51.400Z,2.53
2023-04-18T08:51:19.766Z,9.13
2023-04-18T08:53:50.763Z,6.97
2023-04-18T08:56:22.378Z,3.40
2023-04-18T08:58:50.809Z,4.50
2023-04-18T09:01:19.013Z,6.20
2023-04-18T09:03:47.161Z,7.87
2023-04-18T09:06:19.119Z,3.33
2023-04-18T09:08:59.884Z,2.53
2023-04-18T09:11:29.967Z,8.20
2023-04-18T09:13:59.517Z,2.77
2023-04-18T09:16:29.437Z,2.37
2023-04-18T09:19:12.271Z,8.83
2023-04-18T09:21:42.086Z,11.60
2023-04-18T09:24:24.425Z,14.97
2023-04-18T09:26:54.213Z,4.03
2023-04-18T09:29:23.626Z,1.47
2023-04-18T09:32:01.490Z,6.30
2023-04-18T09:34:30.295Z,14.37
2023-04-18T09:37:10.301Z,3.53
2023-04-18T09:39:40.863Z,9.47
2023-04-18T09:42:10.586Z,4.87
2023-04-18T09:44:39.957Z,5.03
2023-04-18T09:47:08.897Z,7.87
2023-04-18T09:49:37.401Z,11.80
2023-04-18T09:52:08.980Z,6.83
2023-04-18T09:54:41.455Z,5.87
2023-04-18T09:57:13.115Z,5.40
2023-04-18T09:59:47.986Z,5.73
2023-04-18T10:02:22.227Z,6.43
2023-04-18T10:04:52.214Z,3.27
2023-04-18T10:07:21.462Z,2.90
2023-04-18T10:09:51.437Z,3.03
2023-04-18T10:12:20.480Z,10.80
2023-04-18T10:14:49.128Z,6.17
2023-04-18T10:17:17.291Z,2.10
2023-04-18T10:19:47.033Z,4.87
2023-04-18T10:22:15.323Z,1.07
2023-04-18T10:24:54.194Z,10.77
2023-04-18T10:28:03.972Z,0.63
2023-04-18T10:30:52.341Z,3.00
2023-04-18T10:33:30.794Z,2.10
2023-04-18T10:36:06.496Z,2.47
2023-04-18T10:38:35.438Z,4.37
2023-04-18T10:41:23.737Z,3.97
2023-04-18T10:44:18.491Z,3.87
2023-04-18T10:47:33.116Z,6.77
2023-04-18T10:50:06.768Z,2.40
2023-04-18T10:52:35.943Z,3.87
2023-04-18T10:55:17.977Z,3.33
2023-04-18T10:57:49.416Z,3.47
2023-04-18T11:00:20.638Z,4.13
2023-04-18T11:02:56.088Z,5.40
2023-04-18T11:05:26.766Z,4.50
2023-04-18T11:07:55.462Z,2.60
2023-04-18T11:10:25.658Z,2.50
2023-04-18T11:12:56.027Z,1.03
2023-04-18T11:15:27.446Z,8.53
2023-04-18T11:17:59.353Z,2.53
2023-04-18T11:20:27.852Z,2.73
2023-04-18T11:22:57.655Z,2.20
2023-04-18T11:25:28.855Z,1.93
2023-04-18T11:28:00.864Z,4.97
2023-04-18T11:30:31.551Z,2.93
2023-04-18T11:32:59.782Z,5.70
2023-04-18T11:35:28.452Z,1.57
2023-04-18T11:37:56.889Z,1.33
2023-04-18T11:40:25.468Z,1.43
2023-04-18T11:42:55.843Z,2.27
2023-04-18T11:45:26.059Z,5.43
2023-04-18T11:47:58.216Z,1.93
2023-04-18T11:50:27.274Z,3.63
2023-04-18T11:52:57.187Z,1.63
2023-04-18T11:55:27.350Z,0.50
2023-04-18T11:57:56.976Z,1.70
2023-04-18T12:00:35.339Z,3.60
2023-04-18T12:03:05.971Z,8.70
2023-04-18T12:05:38.312Z,5.97
2023-04-18T12:08:08.278Z,3.90
2023-04-18T12:10:37.044Z,3.17
2023-04-18T12:13:09.043Z,3.70
2023-04-18T12:15:42.366Z,2.10
2023-04-18T12:18:12.282Z,2.37
2023-04-18T12:20:46.472Z,1.87
2023-04-18T12:23:30.736Z,5.10
2023-04-18T12:26:03.617Z,4.37
2023-04-18T12:28:32.416Z,4.27
2023-04-18T12:31:02.470Z,1.40
2023-04-18T12:33:31.983Z,4.07
2023-04-18T12:36:00.918Z,3.93
2023-04-18T12:38:31.949Z,1.40
2023-04-18T12:41:00.177Z,2.80
2023-04-18T12:43:28.608Z,6.90
2023-04-18T12:45:57.002Z,1.57
2023-04-18T12:48:26.859Z,3.87
2023-04-18T12:50:55.450Z,9.17
2023-04-18T12:53:23.508Z,0.80
2023-04-18T12:55:51.751Z,3.03
2023-04-18T12:58:20.952Z,1.90
2023-04-18T13:00:49.320Z,1.77
2023-04-18T13:03:18.420Z,1.60
2023-04-18T13:05:48.272Z,3.93
2023-04-18T13:08:17.960Z,2.00
2023-04-18T13:10:47.753Z,1.60
2023-04-18T13:13:17.012Z,3.50
2023-04-18T13:15:45.161Z,1.93
2023-04-18T13:18:13.346Z,2.83
2023-04-18T13:20:42.798Z,6.40
2023-04-18T13:23:13.516Z,3.10
2023-04-18T13:25:42.012Z,6.70
2023-04-18T13:28:10.616Z,4.37
2023-04-18T13:30:39.556Z,2.93
2023-04-18T13:33:07.846Z,1.83
2023-04-18T13:35:38.523Z,3.87
2023-04-18T13:38:06.689Z,4.33
2023-04-18T13:40:38.886Z,3.27
2023-04-18T13:43:07.670Z,2.67
2023-04-18T13:45:36.011Z,1.57
2023-04-18T13:48:04.460Z,4.93
2023-04-18T13:50:32.910Z,2.73
2023-04-18T13:53:01.226Z,2.30
2023-04-18T13:55:29.507Z,3.70
2023-04-18T13:57:58.996Z,3.47
2023-04-18T14:00:27.910Z,4.57
2023-04-18T14:02:57.763Z,3.73
2023-04-18T14:05:26.140Z,1.63
2023-04-18T14:07:56.317Z,4.93
2023-04-18T14:10:25.518Z,4.03
2023-04-18T14:12:53.594Z,3.33
2023-04-18T14:15:23.720Z,5.27
2023-04-18T14:17:51.954Z,2.03
2023-04-18T14:20:20.157Z,7.93
2023-04-18T14:22:49.262Z,3.63
2023-04-18T14:25:19.253Z,7.67
2023-04-18T14:27:49.075Z,1.33
2023-04-18T14:30:17.346Z,2.37
2023-04-18T14:32:47.264Z,2.20
2023-04-18T14:35:16.579Z,2.87
2023-04-18T14:37:44.805Z,1.23
2023-04-18T14:40:13.925Z,1.87
2023-04-18T14:42:42.088Z,2.90
2023-04-18T14:45:11.974Z,2.30
2023-04-18T14:47:40.596Z,5.03
2023-04-18T14:50:12.590Z,1.70
2023-04-18T14:52:41.857Z,3.97
2023-04-18T14:55:11.074Z,1.10
2023-04-18T14:57:39.964Z,2.90
2023-04-18T15:00:10.652Z,0.80
2023-04-18T15:02:39.067Z,0.90
2023-04-18T15:05:10.448Z,1.80
2023-04-18T15:07:38.601Z,2.77
2023-04-18T15:10:12.907Z,5.63
2023-04-18T15:12:41.854Z,3.63
2023-04-18T15:15:11.610Z,1.13
2023-04-18T15:17:39.834Z,2.27
2023-04-18T15:20:10.835Z,3.87
2023-04-18T15:22:39.119Z,2.80
2023-04-18T15:25:08.371Z,6.17
2023-04-18T15:27:37.000Z,3.97
2023-04-18T15:30:05.800Z,1.93
2023-04-18T15:32:34.010Z,3.93
2023-04-18T15:35:03.183Z,2.27
2023-04-18T15:37:32.772Z,2.17
2023-04-18T15:40:00.869Z,4.40
2023-04-18T15:42:29.382Z,6.90
2023-04-18T15:44:57.713Z,4.23
2023-04-18T15:47:25.904Z,3.80
2023-04-18T15:49:54.813Z,2.90
2023-04-18T15:52:23.002Z,5.00
2023-04-18T15:54:53.751Z,9.87
2023-04-18T15:57:22.357Z,2.80
2023-04-18T15:59:50.954Z,4.93
2023-04-18T16:02:19.575Z,3.97
2023-04-18T16:04:47.899Z,4.60
2023-04-18T16:07:16.398Z,1.53
2023-04-18T16:09:46.673Z,2.83
2023-04-18T16:12:16.648Z,8.27
2023-04-18T16:14:44.794Z,8.00
2023-04-18T16:17:13.011Z,2.27
2023-04-18T16:19:41.294Z,1.70
2023-04-18T16:22:10.670Z,3.70
2023-04-18T16:24:40.867Z,2.47
2023-04-18T16:27:10.330Z,3.57
2023-04-18T16:29:40.060Z,6.70
2023-04-18T16:32:09.294Z,2.17
2023-04-18T16:34:39.465Z,5.27
2023-04-18T16:37:09.007Z,4.43
2023-04-18T16:39:37.519Z,4.33
2023-04-18T16:42:05.917Z,2.73
2023-04-18T16:44:35.043Z,4.93
2023-04-18T16:47:05.239Z,6.60
2023-04-18T16:49:33.881Z,4.80
2023-04-18T16:52:01.937Z,4.87
2023-04-18T16:54:30.534Z,2.20
2023-04-18T16:56:58.791Z,1.60
2023-04-18T16:59:27.051Z,2.50
2023-04-18T17:01:55.695Z,2.50
2023-04-18T17:04:27.350Z,2.73
2023-04-18T17:06:58.877Z,2.50
2023-04-18T17:09:27.571Z,2.03
2023-04-18T17:11:56.013Z,2.33
2023-04-18T17:14:25.784Z,6.00
2023-04-18T17:16:54.435Z,4.67
2023-04-18T17:19:24.530Z,1.90
2023-04-18T17:21:54.299Z,1.90
2023-04-18T17:24:23.043Z,2.03
2023-04-18T17:26:51.460Z,1.27
2023-04-18T17:29:19.596Z,3.20
2023-04-18T17:31:48.198Z,2.77
2023-04-18T17:34:16.722Z,1.47
2023-04-18T17:36:45.002Z,3.03
2023-04-18T17:39:16.905Z,3.43
2023-04-18T17:41:49.655Z,3.90
2023-04-18T17:44:17.953Z,1.50
2023-04-18T17:46:46.790Z,3.50
2023-04-18T17:49:16.565Z,3.00
2023-04-18T17:51:47.340Z,4.20
2023-04-18T17:54:16.910Z,2.07
2023-04-18T17:56:45.725Z,1.40
2023-04-18T17:59:14.439Z,3.93
2023-04-18T18:01:43.114Z,1.47
2023-04-18T18:04:11.482Z,2.90
2023-04-18T18:06:39.701Z,2.57
2023-04-18T18:09:08.285Z,1.43
2023-04-18T18:11:40.113Z,1.90
2023-04-18T18:14:08.403Z,2.40
2023-04-18T18:16:39.464Z,2.30
2023-04-18T18:19:08.627Z,6.60
2023-04-18T18:21:37.267Z,1.47
2023-04-18T18:24:06.629Z,4.73
2023-04-18T18:26:36.208Z,6.13
2023-04-18T18:29:09.548Z,4.13
2023-04-18T18:31:38.201Z,1.20
2023-04-18T18:34:08.885Z,1.07
2023-04-18T18:36:37.037Z,4.67
2023-04-18T18:39:05.532Z,1.73
2023-04-18T18:41:34.044Z,4.53
2023-04-18T18:44:02.624Z,5.30
2023-04-18T18:46:33.239Z,2.60
2023-04-18T18:49:01.806Z,2.23
2023-04-18T18:51:30.051Z,3.43
2023-04-18T18:53:58.530Z,3.07
2023-04-18T18:56:26.841Z,3.50
2023-04-18T18:58:56.708Z,2.60
2023-04-18T19:01:25.898Z,2.00
2023-04-18T19:03:55.808Z,3.67
2023-04-18T19:06:24.059Z,4.77
2023-04-18T19:08:52.758Z,5.57
2023-04-18T19:11:21.289Z,2.53
2023-04-18T19:13:52.187Z,4.20
2023-04-18T19:16:21.156Z,4.07
2023-04-18T19:18:50.765Z,2.80
2023-04-18T19:21:20.831Z,2.37
2023-04-18T19:23:49.305Z,6.10
2023-04-18T19:26:18.822Z,4.50
2023-04-18T19:28:47.291Z,1.50
2023-04-18T19:31:15.644Z,5.23
2023-04-18T19:33:43.885Z,4.70
2023-04-18T19:36:12.023Z,2.67
2023-04-18T19:38:41.884Z,5.87
2023-04-18T19:41:13.554Z,6.07
2023-04-18T19:43:42.989Z,3.60
2023-04-18T19:46:11.407Z,6.93
2023-04-18T19:48:40.821Z,3.00
2023-04-18T19:51:09.124Z,5.70
2023-04-18T19:53:37.277Z,6.27
2023-04-18T19:56:10.990Z,4.80
2023-04-18T19:58:45.296Z,9.17
2023-04-18T20:01:14.253Z,6.07
2023-04-18T20:03:42.795Z,5.93
2023-04-18T20:06:13.322Z,2.93
2023-04-18T20:08:42.847Z,3.07
2023-04-18T20:11:13.843Z,3.30
2023-04-18T20:13:42.612Z,3.23
2023-04-18T20:16:12.459Z,3.97
2023-04-18T20:18:42.353Z,2.60
2023-04-18T20:21:11.319Z,2.97
2023-04-18T20:23:41.802Z,1.13
2023-04-18T20:26:10.338Z,2.87
2023-04-18T20:28:40.006Z,7.97
2023-04-18T20:31:08.220Z,6.33
2023-04-18T20:33:38.020Z,21.13
2023-04-18T20:36:06.747Z,14.80
2023-04-18T20:38:35.340Z,4.17
2023-04-18T20:41:03.630Z,8.50
2023-04-18T20:43:36.856Z,6.57
2023-04-18T20:46:07.334Z,5.70
2023-04-18T20:48:35.782Z,7.83
2023-04-18T20:51:04.102Z,7.07
2023-04-18T20:53:32.361Z,6.60
2023-04-18T20:56:02.980Z,3.30
2023-04-18T20:58:31.305Z,5.80
2023-04-18T21:00:59.432Z,7.77
2023-04-18T21:03:29.491Z,5.00
2023-04-18T21:05:58.296Z,4.67
2023-04-18T21:08:26.627Z,7.23
2023-04-18T21:10:54.865Z,3.97
2023-04-18T21:13:23.014Z,5.23
2023-04-18T21:15:52.123Z,4.10
2023-04-18T21:18:20.528Z,4.87
2023-04-18T21:20:50.467Z,4.97
2023-04-18T21:23:18.743Z,4.87
2023-04-18T21:25:47.020Z,7.20
2023-04-18T21:28:15.350Z,4.50
2023-04-18T21:30:43.593Z,2.57
2023-04-18T21:33:11.828Z,4.87
2023-04-18T21:35:40.271Z,2.13
2023-04-18T21:38:10.050Z,2.53
2023-04-18T21:40:38.731Z,6.73
2023-04-18T21:43:07.021Z,2.57
2023-04-18T21:45:35.200Z,6.77
2023-04-18T21:48:03.567Z,5.87
2023-04-18T21:50:31.887Z,8.27
2023-04-18T21:53:00.054Z,6.17
2023-04-18T21:55:29.959Z,9.60
2023-04-18T21:57:58.379Z,5.20
2023-04-18T22:00:27.706Z,8.90
2023-04-18T22:02:56.049Z,7.93
2023-04-18T22:05:26.520Z,12.20
2023-04-18T22:07:58.517Z,8.47
2023-04-18T22:10:27.423Z,12.37
2023-04-18T22:12:56.898Z,3.13
2023-04-18T22:15:27.198Z,8.37
2023-04-18T22:17:56.053Z,11.40
2023-04-18T22:20:25.678Z,11.70
2023-04-18T22:22:55.493Z,15.37
2023-04-18T22:25:24.200Z,9.87
2023-04-18T22:27:52.394Z,2.57
2023-04-18T22:30:22.134Z,7.17
2023-04-18T22:32:50.566Z,4.03
2023-04-18T22:35:18.934Z,11.10
2023-04-18T22:37:47.053Z,9.43
2023-04-18T22:40:16.700Z,8.63
2023-04-18T22:42:45.053Z,6.87
2023-04-18T22:45:13.782Z,6.83
2023-04-18T22:47:43.461Z,8.70
2023-04-18T22:50:12.232Z,5.20
2023-04-18T22:52:40.460Z,6.37
2023-04-18T22:55:09.817Z,4.23
2023-04-18T22:57:39.993Z,2.83
2023-04-18T23:00:10.226Z,5.03
2023-04-18T23:02:38.534Z,5.20
2023-04-18T23:05:10.916Z,5.50
2023-04-18T23:07:39.307Z,5.03
2023-04-18T23:10:08.483Z,5.80
2023-04-18T23:12:36.945Z,10.43
2023-04-18T23:15:05.951Z,1.53
2023-04-18T23:17:35.006Z,2.53
2023-04-18T23:20:04.512Z,3.10
2023-04-18T23:22:34.505Z,5.67
2023-04-18T23:25:02.724Z,5.43
2023-04-18T23:27:30.894Z,2.87
2023-04-18T23:29:59.527Z,2.77
2023-04-18T23:32:29.170Z,2.17
2023-04-18T23:35:05.074Z,1.40
2023-04-18T23:37:36.397Z,9.30
2023-04-18T23:40:09.579Z,4.73
2023-04-18T23:42:37.879Z,4.13
2023-04-18T23:45:06.895Z,5.23
2023-04-18T23:47:35.115Z,2.67
2023-04-18T23:50:04.016Z,4.43
2023-04-18T23:52:32.095Z,3.27
2023-04-18T23:55:02.790Z,6.20
2023-04-18T23:57:31.171Z,2.30
2023-04-18T23:59:59.459Z,1.53
